Durbuy, Belgium
Current Conditions -  °F | °C
As of 6:50 AM on Saturday 20 Dec 2014 (Local Time) from EBLG Reporting Station
Clear Clear  
Wind Chill: 29°   Ceiling: Unl
Heat Index: 37°   Visibility: 6mi
Dew Point: 36°   Wind: 14mph
Humidity: 93%   Direction: 230°SW
Pressure: 30.21"   Gusts: NA
Location:  50.35°N, 5.46°E
Report Text: EBLG 200550Z 23012KT CAVOK 03/02 Q1023 NOSIG
Loading
Personal Weather Stations






























Interactive Weather Map New forecast layout! Learn more

10-Day Weather Forecast

Advertisements
Track Severe Weather on mobile